Time;durP1;ratioP1;P1;durP2;ratioP2;P2;SDS_P1;SDS_P2;PMS_P1;PMS_P2;Temp;Humidity;BMP_temperature;BMP_pressure;BME280_temperature;BME280_humidity;BME280_pressure;Samples;Min_cycle;Max_cycle;Signal;HPM_P1;HPM_P2
2022/07/18 00:00:51;;;;;;;6.50;4.25;;;;;;;;;;5070633;28;20243;-19
2022/07/18 00:03:18;;;;;;;9.13;4.93;;;;;;;;;;5070897;28;20327;-18
2022/07/18 00:05:46;;;;;;;6.70;4.28;;;;;;;;;;5070442;28;20792;-18
2022/07/18 00:08:13;;;;;;;6.90;4.47;;;;;;;;;;5071367;28;20316;-18
2022/07/18 00:10:40;;;;;;;22.85;4.88;;;;;;;;;;5072063;28;20257;-18
2022/07/18 00:13:09;;;;;;;11.43;4.85;;;;;;;;;;5071789;28;20233;-18
2022/07/18 00:15:37;;;;;;;8.73;4.55;;;;;;;;;;5071973;28;20237;-19
2022/07/18 00:18:05;;;;;;;6.93;4.43;;;;;;;;;;5071966;28;20240;-18
2022/07/18 00:20:33;;;;;;;7.88;4.07;;;;;;;;;;5071332;28;20233;-19
2022/07/18 00:23:00;;;;;;;6.20;4.28;;;;;;;;;;5071343;28;20316;-18
2022/07/18 00:25:28;;;;;;;5.32;4.13;;;;;;;;;;5071944;28;20234;-18
2022/07/18 00:27:55;;;;;;;7.82;4.40;;;;;;;;;;5071645;28;20311;-18
2022/07/18 00:30:22;;;;;;;5.03;4.43;;;;;;;;;;5069474;28;20222;-18
2022/07/18 00:32:50;;;;;;;6.00;4.35;;;;;;;;;;5055405;28;20240;-19
2022/07/18 00:35:18;;;;;;;6.10;4.65;;;;;;;;;;5068429;28;20233;-19
2022/07/18 00:37:46;;;;;;;8.05;3.90;;;;;;;;;;5071402;28;20233;-19
2022/07/18 00:40:13;;;;;;;5.80;3.92;;;;;;;;;;5071347;28;20237;-18
2022/07/18 00:42:40;;;;;;;6.72;4.32;;;;;;;;;;5070695;28;20233;-18
2022/07/18 00:45:09;;;;;;;8.95;4.47;;;;;;;;;;5071947;28;20236;-19
2022/07/18 00:47:36;;;;;;;6.30;4.30;;;;;;;;;;5071390;28;20956;-18
2022/07/18 00:50:05;;;;;;;6.85;4.47;;;;;;;;;;5071137;28;20225;-18
2022/07/18 00:52:34;;;;;;;7.80;4.20;;;;;;;;;;5070264;28;20228;-19
2022/07/18 00:55:01;;;;;;;7.10;4.38;;;;;;;;;;5070416;28;20730;-19
2022/07/18 00:57:29;;;;;;;6.35;4.38;;;;;;;;;;5070280;28;20692;-18
2022/07/18 01:02:41;;;;;;;7.00;4.72;;;;;;;;;;5065681;28;20240;-19
2022/07/18 01:05:09;;;;;;;8.43;4.55;;;;;;;;;;5070529;28;20236;-18
2022/07/18 01:07:37;;;;;;;6.35;4.30;;;;;;;;;;5071286;28;20712;-19
2022/07/18 01:10:05;;;;;;;5.45;4.22;;;;;;;;;;5070955;28;20228;-18
2022/07/18 01:12:33;;;;;;;6.50;4.35;;;;;;;;;;5071118;28;20229;-18
2022/07/18 01:15:00;;;;;;;5.97;4.47;;;;;;;;;;5070124;28;20945;-18
2022/07/18 01:17:27;;;;;;;7.93;4.40;;;;;;;;;;5070752;28;20225;-18
2022/07/18 01:20:01;;;;;;;7.68;4.32;;;;;;;;;;5070270;28;20233;-19
2022/07/18 01:22:30;;;;;;;8.23;4.65;;;;;;;;;;5069487;28;20241;-18
2022/07/18 01:24:57;;;;;;;8.90;4.22;;;;;;;;;;5069902;28;20229;-18
2022/07/18 01:27:25;;;;;;;7.13;4.95;;;;;;;;;;5064752;28;20241;-19
2022/07/18 01:29:52;;;;;;;8.05;4.38;;;;;;;;;;5060871;28;20245;-19
2022/07/18 01:32:20;;;;;;;8.70;4.63;;;;;;;;;;5070398;28;20332;-18
2022/07/18 01:34:47;;;;;;;7.70;4.10;;;;;;;;;;5076131;28;20915;-18
2022/07/18 01:37:15;;;;;;;5.40;4.07;;;;;;;;;;5070574;28;20718;-20
2022/07/18 01:39:44;;;;;;;6.45;4.13;;;;;;;;;;5070586;28;20260;-20
2022/07/18 01:42:11;;;;;;;7.47;4.55;;;;;;;;;;5070777;28;20229;-20
2022/07/18 01:44:38;;;;;;;6.47;4.35;;;;;;;;;;5069431;28;20274;-19
2022/07/18 01:47:08;;;;;;;5.75;4.25;;;;;;;;;;5070271;28;20245;-19
2022/07/18 01:49:35;;;;;;;5.32;4.13;;;;;;;;;;5070288;28;20785;-19
2022/07/18 01:52:03;;;;;;;7.32;4.50;;;;;;;;;;5071188;28;21038;-20
2022/07/18 01:54:31;;;;;;;6.35;4.78;;;;;;;;;;5070493;28;20247;-20
2022/07/18 01:57:00;;;;;;;9.80;4.85;;;;;;;;;;5069031;28;20231;-19
2022/07/18 01:59:28;;;;;;;9.00;4.63;;;;;;;;;;5068644;28;20244;-19
2022/07/18 02:01:55;;;;;;;6.25;4.60;;;;;;;;;;5070076;28;20731;-19
2022/07/18 02:04:58;;;;;;;8.07;4.53;;;;;;;;;;5070182;28;20230;-19
2022/07/18 02:07:11;;;;;;;11.52;4.88;;;;;;;;;;5068975;28;20247;-19
2022/07/18 02:09:38;;;;;;;6.00;4.13;;;;;;;;;;5069421;28;20798;-20
2022/07/18 02:12:07;;;;;;;8.73;4.25;;;;;;;;;;5070124;28;20221;-19
2022/07/18 02:14:34;;;;;;;6.20;4.63;;;;;;;;;;5070258;28;20323;-19
2022/07/18 02:17:02;;;;;;;10.15;4.72;;;;;;;;;;5070016;28;20954;-19
2022/07/18 02:19:29;;;;;;;7.45;4.30;;;;;;;;;;5069636;28;20312;-20
2022/07/18 02:21:56;;;;;;;7.32;4.50;;;;;;;;;;5069787;28;20241;-19
2022/07/18 02:24:24;;;;;;;6.05;4.50;;;;;;;;;;5070964;28;20226;-20
2022/07/18 02:26:51;;;;;;;8.20;4.55;;;;;;;;;;5069688;28;20698;-19
2022/07/18 02:29:20;;;;;;;6.07;4.40;;;;;;;;;;5072329;28;20221;-20
2022/07/18 02:31:47;;;;;;;6.43;3.90;;;;;;;;;;5072949;28;20255;-19
2022/07/18 02:34:14;;;;;;;5.72;4.22;;;;;;;;;;5072379;28;20234;-19
2022/07/18 02:36:42;;;;;;;6.32;4.40;;;;;;;;;;5073066;28;20236;-19
2022/07/18 02:39:09;;;;;;;7.88;4.53;;;;;;;;;;5072582;28;20238;-19
2022/07/18 02:41:37;;;;;;;7.30;4.40;;;;;;;;;;5073480;28;20705;-20
2022/07/18 02:44:04;;;;;;;5.93;4.13;;;;;;;;;;5074186;28;20275;-18
2022/07/18 02:46:33;;;;;;;7.32;4.43;;;;;;;;;;5073860;28;20241;-19
2022/07/18 02:49:01;;;;;;;7.45;4.30;;;;;;;;;;5074136;28;20229;-19
2022/07/18 02:51:29;;;;;;;8.43;4.20;;;;;;;;;;5073459;28;20236;-19
2022/07/18 02:53:56;;;;;;;7.88;4.80;;;;;;;;;;5074037;28;20233;-20
2022/07/18 02:56:23;;;;;;;7.85;4.40;;;;;;;;;;5073496;28;20230;-20
2022/07/18 02:58:51;;;;;;;6.50;3.92;;;;;;;;;;5056561;28;20237;-19
2022/07/18 03:01:18;;;;;;;7.70;4.25;;;;;;;;;;5065491;28;20235;-19
2022/07/18 03:03:47;;;;;;;6.05;4.15;;;;;;;;;;5073749;28;20226;-19
2022/07/18 03:06:15;;;;;;;9.23;4.20;;;;;;;;;;5073477;28;20237;-20
2022/07/18 03:08:42;;;;;;;7.60;3.97;;;;;;;;;;5073701;28;20236;-19
2022/07/18 03:11:09;;;;;;;5.38;4.25;;;;;;;;;;5073721;28;20232;-19
2022/07/18 03:13:37;;;;;;;9.02;4.65;;;;;;;;;;5072986;28;20233;-19
2022/07/18 03:16:05;;;;;;;8.95;4.43;;;;;;;;;;5073572;28;20237;-19
2022/07/18 03:18:32;;;;;;;6.35;4.03;;;;;;;;;;5059870;28;20236;-19
2022/07/18 03:21:01;;;;;;;6.43;4.25;;;;;;;;;;5071981;28;20234;-19
2022/07/18 03:23:28;;;;;;;7.25;4.20;;;;;;;;;;5072408;28;20713;-18
2022/07/18 03:25:55;;;;;;;7.20;4.13;;;;;;;;;;5073425;28;20704;-19
2022/07/18 03:28:23;;;;;;;7.53;3.97;;;;;;;;;;5073304;28;20592;-19
2022/07/18 03:30:50;;;;;;;5.85;4.05;;;;;;;;;;5072777;28;20225;-19
2022/07/18 03:33:18;;;;;;;6.47;4.50;;;;;;;;;;5072492;28;20237;-18
2022/07/18 03:35:45;;;;;;;5.25;4.03;;;;;;;;;;5071679;28;20287;-19
2022/07/18 03:38:14;;;;;;;5.30;4.22;;;;;;;;;;5072422;28;20226;-19
2022/07/18 03:40:41;;;;;;;8.18;4.55;;;;;;;;;;5072764;28;20225;-19
2022/07/18 03:43:08;;;;;;;8.30;4.18;;;;;;;;;;5072583;28;20237;-19
2022/07/18 03:45:36;;;;;;;7.95;4.30;;;;;;;;;;5071389;28;20791;-19
2022/07/18 03:48:11;;;;;;;5.00;4.10;;;;;;;;;;5071415;28;20236;-19
2022/07/18 03:50:39;;;;;;;6.93;4.07;;;;;;;;;;5071652;28;20229;-18
2022/07/18 03:53:06;;;;;;;6.75;4.55;;;;;;;;;;5072318;28;20322;-18
2022/07/18 03:55:35;;;;;;;7.50;4.53;;;;;;;;;;5072276;28;20226;-19
2022/07/18 03:58:02;;;;;;;7.03;4.32;;;;;;;;;;5071916;28;20231;-19
2022/07/18 04:00:30;;;;;;;5.30;4.25;;;;;;;;;;5072065;28;21098;-19
2022/07/18 04:02:57;;;;;;;7.80;4.65;;;;;;;;;;5072509;28;20238;-19
2022/07/18 04:05:31;;;;;;;7.07;3.83;;;;;;;;;;5071843;28;20246;-19
2022/07/18 04:07:58;;;;;;;5.97;3.88;;;;;;;;;;5071676;28;20268;-19
2022/07/18 04:10:26;;;;;;;7.35;4.10;;;;;;;;;;5071871;28;20723;-19
2022/07/18 04:12:55;;;;;;;7.38;4.28;;;;;;;;;;5071430;28;20233;-19
2022/07/18 04:15:22;;;;;;;6.28;3.90;;;;;;;;;;5071690;28;20321;-19
2022/07/18 04:17:50;;;;;;;6.50;4.20;;;;;;;;;;5071739;28;20727;-18
2022/07/18 04:20:17;;;;;;;5.68;4.50;;;;;;;;;;5065590;28;20238;-18
2022/07/18 04:22:46;;;;;;;5.72;4.30;;;;;;;;;;5062221;28;20245;-19
2022/07/18 04:25:13;;;;;;;6.28;4.18;;;;;;;;;;5071000;28;20226;-19
2022/07/18 04:27:41;;;;;;;6.88;4.32;;;;;;;;;;5071643;28;20285;-19
2022/07/18 04:30:10;;;;;;;7.10;4.45;;;;;;;;;;5071121;28;20985;-19
2022/07/18 04:32:37;;;;;;;7.45;4.82;;;;;;;;;;5072182;28;20259;-19
2022/07/18 04:35:05;;;;;;;7.10;4.75;;;;;;;;;;5072355;28;20240;-19
2022/07/18 04:37:33;;;;;;;6.72;4.40;;;;;;;;;;5071525;28;20316;-18
2022/07/18 04:40:00;;;;;;;7.25;4.47;;;;;;;;;;5072314;28;20248;-18
2022/07/18 04:42:28;;;;;;;8.90;4.63;;;;;;;;;;5070885;28;20727;-18
2022/07/18 04:44:55;;;;;;;8.05;4.32;;;;;;;;;;5072266;28;20229;-19
2022/07/18 04:47:24;;;;;;;7.35;4.60;;;;;;;;;;5072017;28;20225;-19
2022/07/18 04:49:56;;;;;;;7.43;4.53;;;;;;;;;;5071602;28;20226;-19
2022/07/18 04:52:23;;;;;;;5.45;4.35;;;;;;;;;;5071593;28;20233;-19
2022/07/18 04:54:51;;;;;;;7.50;4.60;;;;;;;;;;5067500;28;20272;-19
2022/07/18 04:57:18;;;;;;;8.40;4.68;;;;;;;;;;5067007;28;20755;-18
2022/07/18 04:59:46;;;;;;;8.43;4.15;;;;;;;;;;5065724;28;20237;-19
2022/07/18 05:02:13;;;;;;;11.00;4.80;;;;;;;;;;5066995;28;20241;-19
2022/07/18 05:04:42;;;;;;;9.43;4.70;;;;;;;;;;5071419;28;20284;-19
2022/07/18 05:07:09;;;;;;;8.88;4.90;;;;;;;;;;5066519;28;20662;-19
2022/07/18 05:09:37;;;;;;;10.63;4.32;;;;;;;;;;5061281;28;20259;-19
2022/07/18 05:12:04;;;;;;;7.93;4.38;;;;;;;;;;5071196;28;20704;-20
2022/07/18 05:14:31;;;;;;;7.93;4.03;;;;;;;;;;5069346;28;20316;-19
2022/07/18 05:17:05;;;;;;;12.00;4.07;;;;;;;;;;5071713;28;20344;-19
2022/07/18 05:19:32;;;;;;;8.18;3.58;;;;;;;;;;5071526;28;20697;-19
2022/07/18 05:22:01;;;;;;;7.47;3.55;;;;;;;;;;5070811;28;21006;-19
2022/07/18 05:24:28;;;;;;;6.82;4.10;;;;;;;;;;5072195;28;20232;-19
2022/07/18 05:26:56;;;;;;;7.65;3.65;;;;;;;;;;5071072;28;20235;-19
2022/07/18 05:29:23;;;;;;;8.18;3.55;;;;;;;;;;5071853;28;20246;-19
2022/07/18 05:31:51;;;;;;;6.10;3.35;;;;;;;;;;5071128;28;20233;-19
2022/07/18 05:34:18;;;;;;;13.35;3.95;;;;;;;;;;5067383;28;20235;-19
2022/07/18 05:36:45;;;;;;;9.95;3.85;;;;;;;;;;5069772;28;20225;-20
2022/07/18 05:39:14;;;;;;;14.77;4.40;;;;;;;;;;5070463;28;20336;-19
2022/07/18 05:41:41;;;;;;;10.55;3.72;;;;;;;;;;5066850;28;20229;-19
2022/07/18 05:44:09;;;;;;;7.05;3.10;;;;;;;;;;5070452;28;20229;-19
2022/07/18 05:46:36;;;;;;;5.88;3.58;;;;;;;;;;5070256;28;21065;-20
2022/07/18 05:49:04;;;;;;;7.53;3.20;;;;;;;;;;5070451;28;20248;-20
2022/07/18 05:51:31;;;;;;;4.53;3.10;;;;;;;;;;5068842;28;20316;-19
2022/07/18 05:53:58;;;;;;;11.07;3.72;;;;;;;;;;5067471;28;20233;-20
2022/07/18 05:56:27;;;;;;;14.65;3.20;;;;;;;;;;5069413;28;20628;-18
2022/07/18 05:58:55;;;;;;;11.38;4.35;;;;;;;;;;5068623;28;20235;-20
2022/07/18 06:01:22;;;;;;;11.07;4.40;;;;;;;;;;5069623;28;20225;-20
2022/07/18 06:03:49;;;;;;;13.27;4.68;;;;;;;;;;5073837;28;20221;-19
2022/07/18 06:06:18;;;;;;;8.50;4.40;;;;;;;;;;5073848;28;20247;-18
2022/07/18 06:08:45;;;;;;;11.50;3.90;;;;;;;;;;5073282;28;20233;-21
2022/07/18 06:11:13;;;;;;;13.02;4.15;;;;;;;;;;5073829;28;20225;-20
2022/07/18 06:13:42;;;;;;;12.73;4.10;;;;;;;;;;5073064;28;20231;-20
2022/07/18 06:16:10;;;;;;;7.00;4.18;;;;;;;;;;5072722;28;20257;-20
2022/07/18 06:18:37;;;;;;;10.40;5.20;;;;;;;;;;5073320;28;20234;-20
2022/07/18 06:21:05;;;;;;;10.90;4.00;;;;;;;;;;5072358;28;20229;-19
2022/07/18 06:23:32;;;;;;;9.00;3.80;;;;;;;;;;5073049;28;20225;-20
2022/07/18 06:25:59;;;;;;;11.68;3.78;;;;;;;;;;5073456;28;20233;-20
2022/07/18 06:28:28;;;;;;;8.88;4.30;;;;;;;;;;5073478;28;20728;-20
2022/07/18 06:30:56;;;;;;;10.57;3.85;;;;;;;;;;5072890;28;20227;-20
2022/07/18 06:33:24;;;;;;;11.10;4.47;;;;;;;;;;5073487;28;20233;-20
2022/07/18 06:35:51;;;;;;;9.18;4.25;;;;;;;;;;5074134;28;20692;-19
2022/07/18 06:38:19;;;;;;;13.13;3.83;;;;;;;;;;5073498;28;20742;-19
2022/07/18 06:40:46;;;;;;;9.80;3.75;;;;;;;;;;5072899;28;20233;-18
2022/07/18 06:43:19;;;;;;;8.85;3.70;;;;;;;;;;5070142;28;20235;-18
2022/07/18 06:45:46;;;;;;;10.90;3.90;;;;;;;;;;5073870;28;20264;-18
2022/07/18 06:48:15;;;;;;;7.00;3.22;;;;;;;;;;5070648;28;20262;-19
2022/07/18 06:50:42;;;;;;;14.55;3.30;;;;;;;;;;5073305;28;20256;-20
2022/07/18 06:53:09;;;;;;;14.07;3.60;;;;;;;;;;5072807;28;20234;-20
2022/07/18 06:55:37;;;;;;;8.95;3.58;;;;;;;;;;5073528;28;20236;-18
2022/07/18 06:58:04;;;;;;;8.43;3.38;;;;;;;;;;5068345;28;20690;-18
2022/07/18 07:00:31;;;;;;;9.23;3.58;;;;;;;;;;5070242;28;20692;-19
2022/07/18 07:03:00;;;;;;;5.68;2.95;;;;;;;;;;5063602;28;20238;-20
2022/07/18 07:05:29;;;;;;;6.32;3.10;;;;;;;;;;5065349;28;20233;-19
2022/07/18 07:07:56;;;;;;;8.70;3.13;;;;;;;;;;5067992;28;20226;-19
2022/07/18 07:10:24;;;;;;;13.27;3.40;;;;;;;;;;5070132;28;20704;-20
2022/07/18 07:12:51;;;;;;;10.40;3.20;;;;;;;;;;5069589;28;20731;-20
2022/07/18 07:15:19;;;;;;;14.27;2.97;;;;;;;;;;5072841;28;20233;-20
2022/07/18 07:17:46;;;;;;;14.02;3.13;;;;;;;;;;5072932;28;20230;-18
2022/07/18 07:20:14;;;;;;;9.35;3.20;;;;;;;;;;5071181;28;21098;-20
2022/07/18 07:22:44;;;;;;;8.98;3.45;;;;;;;;;;5071573;28;20249;-18
2022/07/18 07:25:11;;;;;;;10.13;3.17;;;;;;;;;;5072806;28;20233;-19
2022/07/18 07:27:38;;;;;;;7.55;2.85;;;;;;;;;;5068004;28;20230;-18
2022/07/18 07:30:06;;;;;;;6.75;2.88;;;;;;;;;;5069696;28;20240;-18
2022/07/18 07:32:34;;;;;;;6.82;3.17;;;;;;;;;;5072813;28;20697;-19
2022/07/18 07:35:02;;;;;;;8.27;3.03;;;;;;;;;;5072636;28;20232;-19
2022/07/18 07:37:29;;;;;;;8.50;2.88;;;;;;;;;;5071705;28;20226;-20
2022/07/18 07:39:58;;;;;;;9.10;2.95;;;;;;;;;;5072470;28;20628;-18
2022/07/18 07:42:26;;;;;;;5.70;3.10;;;;;;;;;;5071739;28;20993;-21
2022/07/18 07:44:53;;;;;;;10.15;2.85;;;;;;;;;;5072265;28;20233;-20
2022/07/18 07:47:20;;;;;;;12.30;2.75;;;;;;;;;;5071215;28;20232;-20
2022/07/18 07:49:48;;;;;;;11.75;3.17;;;;;;;;;;5072574;28;20237;-19
2022/07/18 07:52:17;;;;;;;4.63;2.40;;;;;;;;;;5073108;28;20311;-19
2022/07/18 07:54:45;;;;;;;5.38;2.55;;;;;;;;;;5072226;28;20234;-18
2022/07/18 07:57:13;;;;;;;6.28;2.80;;;;;;;;;;5072200;28;20240;-18
2022/07/18 07:59:41;;;;;;;9.43;2.58;;;;;;;;;;5072124;28;20668;-19
2022/07/18 08:02:08;;;;;;;8.00;2.75;;;;;;;;;;5072565;28;20238;-19
2022/07/18 08:04:36;;;;;;;9.30;2.70;;;;;;;;;;5072031;28;20226;-19
2022/07/18 08:07:03;;;;;;;10.98;2.85;;;;;;;;;;5072055;28;20240;-19
2022/07/18 08:09:31;;;;;;;7.13;2.38;;;;;;;;;;5071667;28;20233;-19
2022/07/18 08:11:58;;;;;;;9.55;3.05;;;;;;;;;;5068551;28;20229;-19
2022/07/18 08:14:27;;;;;;;13.25;2.85;;;;;;;;;;5058190;28;20229;-19
2022/07/18 08:16:54;;;;;;;8.45;2.70;;;;;;;;;;5071988;28;20221;-18
2022/07/18 08:19:21;;;;;;;9.13;2.65;;;;;;;;;;5067287;28;20325;-18
2022/07/18 08:21:49;;;;;;;9.85;2.95;;;;;;;;;;5070884;28;20236;-18
2022/07/18 08:24:16;;;;;;;7.05;2.53;;;;;;;;;;5071810;28;20222;-18
2022/07/18 08:26:43;;;;;;;6.85;2.63;;;;;;;;;;5070746;28;20229;-18
2022/07/18 08:29:11;;;;;;;8.45;3.03;;;;;;;;;;5071829;28;20734;-18
2022/07/18 08:31:40;;;;;;;10.55;3.10;;;;;;;;;;5071102;28;20237;-18
2022/07/18 08:34:07;;;;;;;8.07;2.50;;;;;;;;;;5071770;28;20256;-18
2022/07/18 08:36:35;;;;;;;9.45;2.92;;;;;;;;;;5071682;28;20279;-19
2022/07/18 08:39:06;;;;;;;7.00;2.60;;;;;;;;;;5071409;28;20233;-19
2022/07/18 08:41:33;;;;;;;11.85;3.85;;;;;;;;;;5067627;28;20234;-19
2022/07/18 08:44:01;;;;;;;45.53;5.30;;;;;;;;;;5064170;28;20317;-19
2022/07/18 08:46:28;;;;;;;36.13;4.82;;;;;;;;;;5067515;28;21007;-19
2022/07/18 08:48:57;;;;;;;79.20;8.77;;;;;;;;;;5067057;28;20233;-19
2022/07/18 08:51:24;;;;;;;52.63;6.70;;;;;;;;;;5069010;28;20237;-19
2022/07/18 08:53:52;;;;;;;58.00;8.02;;;;;;;;;;5066088;28;20240;-21
2022/07/18 08:56:20;;;;;;;37.42;4.97;;;;;;;;;;5069061;28;20240;-18
2022/07/18 08:58:47;;;;;;;26.67;4.72;;;;;;;;;;5064642;28;20233;-17
2022/07/18 09:01:15;;;;;;;33.50;4.07;;;;;;;;;;5062495;28;20283;-19
2022/07/18 09:03:42;;;;;;;20.40;3.45;;;;;;;;;;5065155;28;20705;-20
2022/07/18 09:06:11;;;;;;;14.43;3.60;;;;;;;;;;5065496;28;20229;-18
2022/07/18 09:08:39;;;;;;;17.42;3.92;;;;;;;;;;5070674;28;20230;-19
2022/07/18 09:11:09;;;;;;;10.05;2.70;;;;;;;;;;5070711;28;20241;-18
2022/07/18 09:13:57;;;;;;;6.00;2.40;;;;;;;;;;5071999;28;20240;-18
2022/07/18 09:16:24;;;;;;;9.85;2.42;;;;;;;;;;5070811;28;20234;-18
2022/07/18 09:18:52;;;;;;;11.13;2.38;;;;;;;;;;5070664;28;20244;-19
2022/07/18 09:21:21;;;;;;;8.45;2.75;;;;;;;;;;5070638;28;20241;-19
2022/07/18 09:23:49;;;;;;;4.85;2.00;;;;;;;;;;5070499;28;20221;-19
2022/07/18 09:26:34;;;;;;;4.20;2.28;;;;;;;;;;5070424;28;20237;-19
2022/07/18 09:29:02;;;;;;;7.80;2.20;;;;;;;;;;5065412;28;20340;-19
2022/07/18 09:31:49;;;;;;;7.18;2.50;;;;;;;;;;5069170;28;20261;-18
2022/07/18 09:34:18;;;;;;;9.02;2.50;;;;;;;;;;5069651;28;20276;-18
2022/07/18 09:36:55;;;;;;;7.47;2.25;;;;;;;;;;5073311;28;20699;-19
2022/07/18 09:39:23;;;;;;;9.15;2.40;;;;;;;;;;5070359;28;20228;-18
2022/07/18 09:41:50;;;;;;;5.28;2.25;;;;;;;;;;5070082;28;20237;-18
2022/07/18 09:44:17;;;;;;;8.05;2.80;;;;;;;;;;5070573;28;20236;-18
2022/07/18 09:47:01;;;;;;;8.48;2.60;;;;;;;;;;5070402;28;20260;-19
2022/07/18 09:49:29;;;;;;;7.60;3.08;;;;;;;;;;5074928;28;20275;-19
2022/07/18 09:52:04;;;;;;;7.88;2.50;;;;;;;;;;5071152;28;20233;-19
2022/07/18 09:54:41;;;;;;;8.93;2.28;;;;;;;;;;5070588;28;20319;-19
2022/07/18 09:57:08;;;;;;;5.53;2.10;;;;;;;;;;5065248;28;20381;-18
2022/07/18 09:59:36;;;;;;;6.55;2.30;;;;;;;;;;5070196;28;20245;-18
2022/07/18 10:02:03;;;;;;;7.78;2.75;;;;;;;;;;5070753;28;20376;-19
2022/07/18 10:04:31;;;;;;;7.13;2.58;;;;;;;;;;5070570;28;20286;-19
2022/07/18 10:06:58;;;;;;;6.15;2.13;;;;;;;;;;5070579;28;20582;-19
2022/07/18 10:09:27;;;;;;;5.85;2.10;;;;;;;;;;5069494;28;20312;-19
2022/07/18 10:11:54;;;;;;;6.07;2.38;;;;;;;;;;5065053;28;20225;-19
2022/07/18 10:14:28;;;;;;;9.52;2.65;;;;;;;;;;5056949;28;20229;-19
2022/07/18 10:16:55;;;;;;;8.98;2.30;;;;;;;;;;5070139;28;20750;-19
2022/07/18 10:19:22;;;;;;;5.13;2.33;;;;;;;;;;5070187;28;20237;-19
2022/07/18 10:21:50;;;;;;;5.43;1.80;;;;;;;;;;5069639;28;20332;-19
2022/07/18 10:24:17;;;;;;;7.03;2.53;;;;;;;;;;5069493;28;20240;-19
2022/07/18 10:26:46;;;;;;;3.95;2.05;;;;;;;;;;5069950;28;20237;-18
2022/07/18 10:29:16;;;;;;;3.35;1.83;;;;;;;;;;5070157;28;20236;-19
2022/07/18 10:32:01;;;;;;;3.80;2.00;;;;;;;;;;5069531;28;20259;-19
2022/07/18 10:34:30;;;;;;;7.28;2.38;;;;;;;;;;5069812;28;20237;-19
2022/07/18 10:37:18;;;;;;;5.13;1.98;;;;;;;;;;5070500;28;20238;-19
2022/07/18 10:39:46;;;;;;;5.93;2.20;;;;;;;;;;5062637;28;20229;-19
2022/07/18 10:42:19;;;;;;;9.05;2.30;;;;;;;;;;5069634;28;20234;-20
2022/07/18 10:44:47;;;;;;;9.35;2.10;;;;;;;;;;5069978;28;20978;-19
2022/07/18 10:47:17;;;;;;;13.95;2.20;;;;;;;;;;5069754;28;20261;-19
2022/07/18 10:50:00;;;;;;;3.33;1.92;;;;;;;;;;5071377;28;20233;-18
2022/07/18 10:52:46;;;;;;;5.88;1.95;;;;;;;;;;5072764;28;20240;-18
2022/07/18 10:55:30;;;;;;;9.70;2.30;;;;;;;;;;5059048;28;20233;-18
2022/07/18 11:00:55;;;;;;;3.38;1.90;;;;;;;;;;5127230;27;20568;-18
2022/07/18 11:03:28;;;;;;;4.68;1.90;;;;;;;;;;5125567;27;20215;-19
2022/07/18 11:05:56;;;;;;;5.85;2.17;;;;;;;;;;5094498;28;20626;-19
2022/07/18 11:08:24;;;;;;;3.90;1.98;;;;;;;;;;5108173;28;20974;-18
2022/07/18 11:11:05;;;;;;;3.28;1.80;;;;;;;;;;5119620;27;20307;-19
2022/07/18 11:13:35;;;;;;;7.57;2.22;;;;;;;;;;5128481;27;20231;-19
2022/07/18 11:16:05;;;;;;;3.30;1.80;;;;;;;;;;5107547;27;20310;-19
2022/07/18 11:18:33;;;;;;;4.88;2.00;;;;;;;;;;5107940;28;20649;-16
2022/07/18 11:21:00;;;;;;;9.48;2.28;;;;;;;;;;5122317;27;20232;-19
2022/07/18 11:23:28;;;;;;;6.68;2.20;;;;;;;;;;5118503;27;20232;-18
2022/07/18 11:26:03;;;;;;;5.75;1.92;;;;;;;;;;5124238;27;20237;-19
2022/07/18 11:28:30;;;;;;;5.30;1.83;;;;;;;;;;5129177;27;20234;-19
2022/07/18 11:31:02;;;;;;;5.45;1.70;;;;;;;;;;5121282;27;20224;-18
2022/07/18 11:33:31;;;;;;;3.60;1.70;;;;;;;;;;5118090;27;20310;-18
2022/07/18 11:36:05;;;;;;;5.45;1.90;;;;;;;;;;5128636;27;20223;-18
2022/07/18 11:38:33;;;;;;;6.07;1.60;;;;;;;;;;5107386;28;20230;-19
2022/07/18 11:41:01;;;;;;;4.07;1.67;;;;;;;;;;5095665;27;20237;-18
2022/07/18 11:43:28;;;;;;;3.10;1.50;;;;;;;;;;5102671;27;20238;-19
2022/07/18 11:46:00;;;;;;;3.72;1.52;;;;;;;;;;5120782;27;20243;-18
2022/07/18 11:48:27;;;;;;;2.63;1.48;;;;;;;;;;5104450;27;20721;-18
2022/07/18 11:50:56;;;;;;;7.20;1.73;;;;;;;;;;5115348;27;20225;-19
2022/07/18 11:53:23;;;;;;;3.92;1.90;;;;;;;;;;5121651;27;20259;-20
2022/07/18 11:55:51;;;;;;;5.35;1.55;;;;;;;;;;5118687;27;20224;-19
2022/07/18 11:58:19;;;;;;;2.85;1.77;;;;;;;;;;5125486;27;20250;-19
2022/07/18 12:00:46;;;;;;;3.42;1.70;;;;;;;;;;5092682;27;20359;-18
2022/07/18 12:03:14;;;;;;;4.88;1.80;;;;;;;;;;5119662;27;20228;-17
2022/07/18 12:05:42;;;;;;;2.92;1.52;;;;;;;;;;5128127;27;20219;-19
2022/07/18 12:08:29;;;;;;;3.70;2.10;;;;;;;;;;5127479;27;20982;-19
2022/07/18 12:11:09;;;;;;;4.30;1.75;;;;;;;;;;5102020;28;20224;-19
2022/07/18 12:13:40;;;;;;;4.43;1.70;;;;;;;;;;5113984;27;20232;-20
2022/07/18 12:16:07;;;;;;;5.32;1.98;;;;;;;;;;5111145;27;20706;-19
2022/07/18 12:18:35;;;;;;;3.47;1.70;;;;;;;;;;5113611;27;20224;-18
2022/07/18 12:21:08;;;;;;;2.30;1.52;;;;;;;;;;5094039;27;20240;-19
2022/07/18 12:23:37;;;;;;;4.72;2.00;;;;;;;;;;5105016;28;20239;-19
2022/07/18 12:26:04;;;;;;;3.38;2.15;;;;;;;;;;5113766;27;20231;-20
2022/07/18 12:28:32;;;;;;;5.65;1.77;;;;;;;;;;5114057;27;20250;-19
2022/07/18 12:30:59;;;;;;;3.08;1.60;;;;;;;;;;5099188;27;20229;-19
2022/07/18 12:33:28;;;;;;;4.45;1.73;;;;;;;;;;5092846;27;20244;-19
2022/07/18 12:35:56;;;;;;;3.50;1.58;;;;;;;;;;5107361;28;20232;-19
2022/07/18 12:38:23;;;;;;;7.05;2.08;;;;;;;;;;5093162;28;20225;-19
2022/07/18 12:40:53;;;;;;;4.18;2.00;;;;;;;;;;5092474;28;20236;-19
2022/07/18 12:43:24;;;;;;;3.90;1.90;;;;;;;;;;5098784;28;20235;-19
2022/07/18 12:45:52;;;;;;;7.70;2.00;;;;;;;;;;5100109;27;20224;-19
2022/07/18 12:48:19;;;;;;;2.72;1.77;;;;;;;;;;5112684;28;20238;-20
2022/07/18 12:50:47;;;;;;;4.28;1.95;;;;;;;;;;5101866;27;20298;-19
2022/07/18 12:53:14;;;;;;;6.32;1.92;;;;;;;;;;5106503;28;20232;-19
2022/07/18 12:55:41;;;;;;;5.82;2.22;;;;;;;;;;5103324;28;20240;-20
2022/07/18 12:58:10;;;;;;;3.10;1.52;;;;;;;;;;5098859;27;20259;-20
2022/07/18 13:00:38;;;;;;;4.43;2.50;;;;;;;;;;5090828;28;20255;-16
2022/07/18 13:03:05;;;;;;;3.72;1.70;;;;;;;;;;5091249;28;20251;-17
2022/07/18 13:05:32;;;;;;;3.47;1.88;;;;;;;;;;5087656;28;20233;-19
2022/07/18 13:08:00;;;;;;;2.90;1.70;;;;;;;;;;5082045;28;20232;-20
2022/07/18 13:23:43;;;;;;;5.72;2.03;;;;;;;;;;5082262;28;20237;-19
2022/07/18 13:26:11;;;;;;;3.25;1.83;;;;;;;;;;5078655;28;20236;-16
2022/07/18 13:28:38;;;;;;;11.52;2.42;;;;;;;;;;5092262;28;20224;-19
2022/07/18 13:31:06;;;;;;;4.45;1.98;;;;;;;;;;5090317;28;20232;-20
2022/07/18 13:33:35;;;;;;;3.35;1.92;;;;;;;;;;5091739;28;20232;-19
2022/07/18 13:36:02;;;;;;;7.85;1.80;;;;;;;;;;5091708;28;20633;-19
2022/07/18 13:38:29;;;;;;;7.53;1.98;;;;;;;;;;5089060;28;20688;-19
2022/07/18 13:40:58;;;;;;;3.17;1.95;;;;;;;;;;5096594;28;20228;-18
2022/07/18 13:43:25;;;;;;;4.97;2.08;;;;;;;;;;5091213;28;20233;-19
2022/07/18 13:45:53;;;;;;;3.97;1.65;;;;;;;;;;5086560;28;20236;-19
2022/07/18 13:48:20;;;;;;;5.65;1.98;;;;;;;;;;5092267;28;20282;-19
2022/07/18 13:50:48;;;;;;;4.82;1.70;;;;;;;;;;5088187;28;20237;-15
2022/07/18 13:53:15;;;;;;;5.38;1.80;;;;;;;;;;5083914;28;20229;-18
2022/07/18 13:55:42;;;;;;;2.42;1.50;;;;;;;;;;5087448;27;20232;-18
2022/07/18 13:58:11;;;;;;;4.07;2.25;;;;;;;;;;5088550;28;20316;-19
2022/07/18 14:00:38;;;;;;;4.20;1.92;;;;;;;;;;5090272;28;20245;-19
2022/07/18 14:03:07;;;;;;;3.80;1.70;;;;;;;;;;5088471;28;20806;-20
2022/07/18 14:05:35;;;;;;;2.72;1.45;;;;;;;;;;5098109;28;20225;-19
2022/07/18 14:08:03;;;;;;;3.20;1.95;;;;;;;;;;5095636;28;20220;-19
2022/07/18 14:10:30;;;;;;;3.53;1.40;;;;;;;;;;5085787;27;20236;-19
2022/07/18 14:12:57;;;;;;;2.33;1.50;;;;;;;;;;5091539;28;20229;-19
2022/07/18 14:15:26;;;;;;;5.03;1.80;;;;;;;;;;5091093;28;20225;-16
2022/07/18 14:17:54;;;;;;;5.63;1.70;;;;;;;;;;5090783;28;20243;-20
2022/07/18 14:20:22;;;;;;;3.95;1.73;;;;;;;;;;5094974;28;20228;-19
2022/07/18 14:22:49;;;;;;;4.00;1.42;;;;;;;;;;5080758;28;20328;-19
2022/07/18 14:25:17;;;;;;;6.15;1.80;;;;;;;;;;5071929;28;20229;-19
2022/07/18 14:27:44;;;;;;;2.75;1.50;;;;;;;;;;5085486;28;20237;-19
2022/07/18 14:30:12;;;;;;;4.43;1.40;;;;;;;;;;5086301;28;20234;-19
2022/07/18 14:32:41;;;;;;;1.52;1.30;;;;;;;;;;5088985;28;20312;-19
2022/07/18 14:35:08;;;;;;;3.13;1.60;;;;;;;;;;5079039;28;20717;-18
2022/07/18 14:37:36;;;;;;;4.10;2.00;;;;;;;;;;5085831;28;20239;-19
2022/07/18 14:40:03;;;;;;;5.18;1.60;;;;;;;;;;5084962;28;20235;-19
2022/07/18 14:42:31;;;;;;;2.33;1.42;;;;;;;;;;5087792;28;20236;-17
2022/07/18 14:44:58;;;;;;;3.75;1.75;;;;;;;;;;5082103;28;20710;-19
2022/07/18 14:47:26;;;;;;;3.03;1.92;;;;;;;;;;5085424;28;20227;-19
2022/07/18 14:49:54;;;;;;;3.95;1.52;;;;;;;;;;5090396;28;20229;-19
2022/07/18 14:52:22;;;;;;;3.42;1.52;;;;;;;;;;5089310;28;20228;-19
2022/07/18 14:55:14;;;;;;;3.60;1.80;;;;;;;;;;5088304;27;20290;-18
2022/07/18 14:57:43;;;;;;;5.38;1.90;;;;;;;;;;5098751;28;20928;-19
2022/07/18 15:00:10;;;;;;;2.25;1.63;;;;;;;;;;5103307;27;20236;-19
2022/07/18 15:02:38;;;;;;;2.35;1.40;;;;;;;;;;5097253;28;20714;-19
2022/07/18 15:05:07;;;;;;;2.67;1.48;;;;;;;;;;5087750;27;20264;-19
2022/07/18 15:07:35;;;;;;;3.58;1.40;;;;;;;;;;5085297;28;20222;-18